Time;durP1;ratioP1;P1;durP2;ratioP2;P2;SDS_P1;SDS_P2;PMS_P1;PMS_P2;Temp;Humidity;BMP_temperature;BMP_pressure;BME280_temperature;BME280_humidity;BME280_pressure;Samples;Min_cycle;Max_cycle;Signal;HPM_P1;HPM_P2
2021/07/11 00:00:45;;;;;;;;;;;;;;;28.11;54.49;99905.75;3524951;28;19970;-71
2021/07/11 00:02:26;;;;;;;;;;;;;;;28.10;54.36;99903.34;3525047;28;19927;-71
2021/07/11 00:04:07;;;;;;;;;;;;;;;28.08;54.75;99898.16;3525466;27;19961;-71
2021/07/11 00:05:47;;;;;;;;;;;;;;;28.07;54.47;99909.44;3539202;27;20309;-71
2021/07/11 00:07:31;;;;;;;;;;;;;;;28.04;54.83;99899.91;3539360;27;19924;-71
2021/07/11 00:09:12;;;;;;;;;;;;;;;28.02;54.35;99910.34;3524014;28;19976;-71
2021/07/11 00:10:52;;;;;;;;;;;;;;;28.00;54.63;99905.16;3536239;27;19923;-71
2021/07/11 00:12:33;;;;;;;;;;;;;;;27.99;54.50;99908.22;3538694;27;20458;-72
2021/07/11 00:14:14;;;;;;;;;;;;;;;27.97;55.03;99908.53;3537008;27;19930;-72
2021/07/11 00:15:54;;;;;;;;;;;;;;;27.95;54.74;99896.25;3524979;28;19930;-72
2021/07/11 00:17:35;;;;;;;;;;;;;;;27.94;55.04;99897.38;3524684;28;19938;-71
2021/07/11 00:19:15;;;;;;;;;;;;;;;27.93;54.81;99887.50;3524434;28;19949;-71
2021/07/11 00:20:56;;;;;;;;;;;;;;;27.92;55.05;99897.66;3524559;28;19927;-72
2021/07/11 00:22:37;;;;;;;;;;;;;;;27.90;54.83;99894.41;3524006;28;19930;-71
2021/07/11 00:24:17;;;;;;;;;;;;;;;27.90;54.58;99893.59;3509895;28;19931;-71
2021/07/11 00:25:58;;;;;;;;;;;;;;;27.88;54.66;99898.56;3533605;27;19968;-71
2021/07/11 00:27:38;;;;;;;;;;;;;;;27.88;54.96;99890.34;3538960;27;19989;-71
2021/07/11 00:29:19;;;;;;;;;;;;;;;27.87;55.05;99899.69;3539067;27;20454;-71
2021/07/11 00:31:00;;;;;;;;;;;;;;;27.84;55.03;99901.94;3519696;28;19923;-71
2021/07/11 00:32:41;;;;;;;;;;;;;;;27.83;54.92;99908.53;3531022;27;20407;-71
2021/07/11 00:34:21;;;;;;;;;;;;;;;27.81;55.18;99907.22;3525202;28;19930;-71
2021/07/11 00:36:02;;;;;;;;;;;;;;;27.79;55.29;99904.72;3524863;28;19924;-71
2021/07/11 00:37:42;;;;;;;;;;;;;;;27.78;55.34;99916.81;3525656;28;20319;-71
2021/07/11 00:39:23;;;;;;;;;;;;;;;27.77;54.94;99911.63;3509788;28;19924;-72
2021/07/11 00:41:04;;;;;;;;;;;;;;;27.74;55.00;99907.56;3521748;28;20302;-71
2021/07/11 00:42:44;;;;;;;;;;;;;;;27.73;55.28;99911.44;3528727;28;19924;-71
2021/07/11 00:44:25;;;;;;;;;;;;;;;27.73;54.98;99911.44;3512581;28;19920;-72
2021/07/11 00:46:06;;;;;;;;;;;;;;;27.73;55.34;99908.69;3506800;28;20357;-71
2021/07/11 00:47:47;;;;;;;;;;;;;;;27.73;55.31;99910.63;3495759;28;19921;-71
2021/07/11 00:49:28;;;;;;;;;;;;;;;27.73;55.10;99907.91;3506998;28;20402;-72
2021/07/11 00:51:09;;;;;;;;;;;;;;;27.72;55.16;99912.53;3506590;28;20508;-71
2021/07/11 00:52:52;;;;;;;;;;;;;;;27.71;55.17;99913.66;3507146;28;20017;-72
2021/07/11 00:54:38;;;;;;;;;;;;;;;27.70;55.11;99912.06;3533841;28;19977;-72
2021/07/11 00:56:20;;;;;;;;;;;;;;;27.70;54.88;99919.44;3523804;28;19926;-72
2021/07/11 00:58:00;;;;;;;;;;;;;;;27.70;55.21;99916.69;3520919;28;19924;-71
2021/07/11 00:59:49;;;;;;;;;;;;;;;27.69;54.94;99920.56;3522137;28;22206;-71
2021/07/11 01:01:33;;;;;;;;;;;;;;;27.69;55.38;99913.16;3535907;28;19931;-71
2021/07/11 01:03:20;;;;;;;;;;;;;;;27.68;54.95;99913.47;3538864;28;19940;-72
2021/07/11 01:05:05;;;;;;;;;;;;;;;27.68;55.01;99918.94;3510602;28;20007;-72
2021/07/11 01:06:48;;;;;;;;;;;;;;;27.66;55.38;99912.94;3521542;28;19963;-72
2021/07/11 01:08:37;;;;;;;;;;;;;;;27.66;55.34;99916.50;3495401;28;19931;-72
2021/07/11 01:10:29;;;;;;;;;;;;;;;27.65;55.04;99923.09;3505988;28;20019;-72
2021/07/11 01:12:25;;;;;;;;;;;;;;;27.65;55.11;99914.88;3508044;28;21136;-71
2021/07/11 01:14:06;;;;;;;;;;;;;;;27.66;55.05;99921.16;3497397;28;19957;-71
2021/07/11 01:15:47;;;;;;;;;;;;;;;27.66;55.35;99915.69;3521145;28;19928;-71
2021/07/11 01:17:27;;;;;;;;;;;;;;;27.67;55.41;99918.09;3506739;28;19961;-72
2021/07/11 01:19:14;;;;;;;;;;;;;;;27.67;55.01;99918.09;3506417;28;19938;-71
2021/07/11 01:21:02;;;;;;;;;;;;;;;27.67;54.90;99925.53;3507526;28;20398;-71
2021/07/11 01:22:49;;;;;;;;;;;;;;;27.68;55.06;99924.44;3521326;28;19923;-71
2021/07/11 01:24:31;;;;;;;;;;;;;;;27.69;55.30;99932.31;3529133;28;19939;-71
2021/07/11 01:26:13;;;;;;;;;;;;;;;27.68;55.43;99925.22;3510503;28;19947;-70
2021/07/11 01:27:55;;;;;;;;;;;;;;;27.68;55.00;99925.22;3530725;28;19923;-71
2021/07/11 01:29:37;;;;;;;;;;;;;;;27.67;54.95;99923.59;3509543;28;20426;-71
2021/07/11 01:31:18;;;;;;;;;;;;;;;27.66;55.43;99930.19;3506564;28;19971;-70
2021/07/11 01:33:00;;;;;;;;;;;;;;;27.66;55.34;99930.19;3509461;28;20030;-70
2021/07/11 01:34:41;;;;;;;;;;;;;;;27.66;55.43;99930.19;3509037;28;20378;-71
2021/07/11 01:36:22;;;;;;;;;;;;;;;27.65;55.37;99925.84;3497901;28;19932;-72
2021/07/11 01:38:04;;;;;;;;;;;;;;;27.66;54.98;99932.13;3506341;28;19951;-72
2021/07/11 01:39:45;;;;;;;;;;;;;;;27.65;55.44;99925.84;3495588;28;19968;-73
2021/07/11 01:41:27;;;;;;;;;;;;;;;27.64;55.37;99929.69;3506911;28;21245;-71
2021/07/11 01:43:08;;;;;;;;;;;;;;;27.64;55.01;99918.72;3495066;28;19977;-71
2021/07/11 01:44:52;;;;;;;;;;;;;;;27.64;54.98;99918.72;3495477;28;19924;-71
2021/07/11 01:46:32;;;;;;;;;;;;;;;27.64;54.91;99929.69;3508937;28;19977;-71
2021/07/11 01:48:14;;;;;;;;;;;;;;;27.61;54.91;99922.06;3509157;28;19924;-71
2021/07/11 01:49:56;;;;;;;;;;;;;;;27.61;55.33;99922.06;3509049;28;19932;-71
2021/07/11 01:51:37;;;;;;;;;;;;;;;27.60;55.11;99928.66;3523825;28;20378;-71
2021/07/11 01:53:22;;;;;;;;;;;;;;;27.60;55.38;99923.19;3497527;28;20276;-72
2021/07/11 01:55:04;;;;;;;;;;;;;;;27.60;55.27;99925.94;3506925;28;19924;-72
2021/07/11 01:56:45;;;;;;;;;;;;;;;27.59;55.25;99924.28;3509208;28;20002;-71
2021/07/11 01:58:31;;;;;;;;;;;;;;;27.58;55.19;99930.91;3509429;28;19928;-72
2021/07/11 02:00:14;;;;;;;;;;;;;;;27.56;55.36;99922.97;3521964;28;20351;-71
2021/07/11 02:01:58;;;;;;;;;;;;;;;27.55;54.90;99924.09;3538344;27;19924;-71
2021/07/11 02:03:38;;;;;;;;;;;;;;;27.55;55.36;99924.09;3525698;28;20405;-72
2021/07/11 02:05:22;;;;;;;;;;;;;;;27.54;55.38;99922.44;3523864;28;19920;-72
2021/07/11 02:07:06;;;;;;;;;;;;;;;27.53;54.86;99918.09;3524170;28;19931;-72
2021/07/11 02:08:47;;;;;;;;;;;;;;;27.54;55.22;99929.88;3523300;28;19946;-72
2021/07/11 02:10:37;;;;;;;;;;;;;;;27.52;55.13;99927.44;3527677;28;19930;-72
2021/07/11 02:12:30;;;;;;;;;;;;;;;27.51;55.16;99936.75;3525776;28;19946;-72
2021/07/11 02:14:15;;;;;;;;;;;;;;;27.51;55.22;99925.81;3495896;28;19924;-72
2021/07/11 02:16:00;;;;;;;;;;;;;;;27.51;54.75;99925.00;3497848;28;20414;-72
2021/07/11 02:17:42;;;;;;;;;;;;;;;27.51;55.24;99925.00;3495028;28;20407;-72
2021/07/11 02:19:33;;;;;;;;;;;;;;;27.51;55.01;99933.22;3509737;28;20583;-73
2021/07/11 02:21:13;;;;;;;;;;;;;;;27.52;55.17;99938.41;3508545;28;20021;-72
2021/07/11 02:22:55;;;;;;;;;;;;;;;27.52;54.80;99940.28;3508539;28;20438;-72
2021/07/11 02:24:39;;;;;;;;;;;;;;;27.53;55.09;99933.72;3508466;28;19924;-71
2021/07/11 02:26:22;;;;;;;;;;;;;;;27.53;54.70;99939.19;3510350;28;19924;-71
2021/07/11 02:28:03;;;;;;;;;;;;;;;27.53;55.06;99939.19;3511867;28;19989;-71
2021/07/11 02:29:45;;;;;;;;;;;;;;;27.52;55.08;99938.41;3512333;28;19926;-71
2021/07/11 02:31:27;;;;;;;;;;;;;;;27.53;54.60;99934.53;3512335;28;19924;-72
2021/07/11 02:33:11;;;;;;;;;;;;;;;27.53;54.99;99939.19;3512141;28;19928;-71
2021/07/11 02:34:52;;;;;;;;;;;;;;;27.50;54.71;99926.94;3512179;28;20441;-72
2021/07/11 02:36:33;;;;;;;;;;;;;;;27.51;54.52;99935.94;3498824;28;19987;-72
2021/07/11 02:38:15;;;;;;;;;;;;;;;27.49;54.86;99929.97;3519724;28;19959;-71
2021/07/11 02:39:56;;;;;;;;;;;;;;;27.49;54.87;99927.22;3522383;28;20320;-71
2021/07/11 02:41:39;;;;;;;;;;;;;;;27.49;54.90;99933.50;3522552;28;20354;-71
2021/07/11 02:43:20;;;;;;;;;;;;;;;27.50;54.89;99928.84;3508334;28;20042;-72
2021/07/11 02:45:02;;;;;;;;;;;;;;;27.50;54.51;99931.59;3505039;28;19931;-71
2021/07/11 02:46:55;;;;;;;;;;;;;;;27.51;54.86;99933.22;3512556;28;20016;-71
2021/07/11 02:48:37;;;;;;;;;;;;;;;27.50;54.65;99931.59;3495046;28;19977;-72
2021/07/11 02:50:18;;;;;;;;;;;;;;;27.49;54.81;99938.97;3494187;28;20366;-72
2021/07/11 02:52:04;;;;;;;;;;;;;;;27.50;54.42;99939.81;3492462;28;20460;-72
2021/07/11 02:53:46;;;;;;;;;;;;;;;27.50;54.91;99935.13;3506340;28;19963;-72
2021/07/11 02:55:29;;;;;;;;;;;;;;;27.51;54.84;99938.69;3494296;28;19924;-71
2021/07/11 02:57:10;;;;;;;;;;;;;;;27.51;54.82;99938.69;3515980;28;19969;-71
2021/07/11 02:58:51;;;;;;;;;;;;;;;27.51;54.73;99933.22;3525760;28;20379;-71
2021/07/11 03:00:33;;;;;;;;;;;;;;;27.50;54.58;99935.13;3510547;28;20317;-71
2021/07/11 03:02:14;;;;;;;;;;;;;;;27.51;54.69;99933.22;3523321;28;19977;-71
2021/07/11 03:03:55;;;;;;;;;;;;;;;27.51;54.67;99935.94;3524824;28;19916;-71
2021/07/11 03:05:38;;;;;;;;;;;;;;;27.53;54.62;99936.47;3521705;28;19923;-71
2021/07/11 03:07:20;;;;;;;;;;;;;;;27.56;54.56;99941.34;3512314;28;20387;-71
2021/07/11 03:09:02;;;;;;;;;;;;;;;27.57;54.45;99935.56;3510864;28;19987;-71
2021/07/11 03:10:43;;;;;;;;;;;;;;;27.57;54.43;99938.31;3511008;28;19932;-71
2021/07/11 03:12:27;;;;;;;;;;;;;;;27.61;54.00;99941.25;3494381;28;20406;-71
2021/07/11 03:14:09;;;;;;;;;;;;;;;27.63;54.42;99937.09;3505277;28;20045;-71
2021/07/11 03:15:54;;;;;;;;;;;;;;;27.66;54.07;99941.16;3510214;28;19916;-71
2021/07/11 03:17:37;;;;;;;;;;;;;;;27.70;54.12;99942.19;3513159;28;19930;-72
2021/07/11 03:19:18;;;;;;;;;;;;;;;27.73;53.95;99933.34;3510153;28;19935;-71
2021/07/11 03:21:00;;;;;;;;;;;;;;;27.71;53.48;99929.28;3519183;28;19924;-71
2021/07/11 03:22:42;;;;;;;;;;;;;;;27.76;53.65;99935.47;3521498;28;19962;-71
2021/07/11 03:24:24;;;;;;;;;;;;;;;27.78;53.85;99938.72;3518582;28;20023;-71
2021/07/11 03:26:05;;;;;;;;;;;;;;;27.81;53.60;99938.16;3507325;28;20293;-72
2021/07/11 03:27:47;;;;;;;;;;;;;;;27.82;53.59;99931.53;3507675;28;19931;-71
2021/07/11 03:29:52;;;;;;;;;;;;;;;27.84;53.57;99934.78;3511030;28;20279;-71
2021/07/11 03:31:33;;;;;;;;;;;;;;;27.87;53.12;99932.56;3510196;28;20018;-71
2021/07/11 03:33:14;;;;;;;;;;;;;;;27.91;53.00;99931.66;3508603;28;20002;-71
2021/07/11 03:34:56;;;;;;;;;;;;;;;27.94;52.82;99933.00;3507234;28;19924;-71
2021/07/11 03:36:40;;;;;;;;;;;;;;;27.97;53.09;99937.84;3493695;28;20358;-71
2021/07/11 03:38:37;;;;;;;;;;;;;;;28.00;52.82;99938.03;3494793;28;19978;-72
2021/07/11 03:40:18;;;;;;;;;;;;;;;28.04;52.64;99932.78;3495587;28;20033;-70
2021/07/11 03:41:59;;;;;;;;;;;;;;;28.06;52.81;99936.00;3491071;28;20370;-70
2021/07/11 03:43:40;;;;;;;;;;;;;;;28.08;52.31;99931.03;3507419;28;19977;-70
2021/07/11 03:45:21;;;;;;;;;;;;;;;28.10;52.48;99928.81;3509585;28;19935;-70
2021/07/11 03:47:04;;;;;;;;;;;;;;;28.13;51.91;99924.66;3507280;28;19916;-71
2021/07/11 03:48:46;;;;;;;;;;;;;;;28.15;51.58;99933.38;3510740;28;20010;-71
2021/07/11 03:50:27;;;;;;;;;;;;;;;28.15;51.28;99923.22;3510295;28;20294;-71
2021/07/11 03:52:07;;;;;;;;;;;;;;;28.18;51.15;99927.28;3510569;28;20015;-71
2021/07/11 03:53:48;;;;;;;;;;;;;;;28.19;51.20;99932.47;3510913;28;19916;-71
2021/07/11 03:55:29;;;;;;;;;;;;;;;28.22;50.59;99928.31;3510932;28;19924;-72
2021/07/11 03:57:10;;;;;;;;;;;;;;;28.24;50.48;99929.63;3509038;28;19974;-70
2021/07/11 03:58:50;;;;;;;;;;;;;;;28.26;50.53;99929.28;3507116;28;20045;-70
2021/07/11 04:00:31;;;;;;;;;;;;;;;28.30;50.07;99929.50;3506858;28;19951;-72
2021/07/11 04:02:11;;;;;;;;;;;;;;;28.32;50.00;99927.25;3506873;28;19924;-72
2021/07/11 04:03:51;;;;;;;;;;;;;;;28.31;49.89;99925.63;3507383;28;19928;-72
2021/07/11 04:05:34;;;;;;;;;;;;;;;28.32;49.63;99932.75;3506949;28;19923;-71
2021/07/11 04:07:14;;;;;;;;;;;;;;;28.36;49.82;99928.28;3510833;28;19923;-71
2021/07/11 04:08:59;;;;;;;;;;;;;;;28.38;49.62;99926.84;3509735;28;19931;-71
2021/07/11 04:10:40;;;;;;;;;;;;;;;28.43;49.50;99934.16;3507218;28;19935;-71
2021/07/11 04:12:20;;;;;;;;;;;;;;;28.46;49.01;99926.16;3510577;28;20314;-71
2021/07/11 04:14:01;;;;;;;;;;;;;;;28.50;48.94;99929.09;3514293;28;20018;-71
2021/07/11 04:15:43;;;;;;;;;;;;;;;28.51;48.63;99914.25;3523462;28;20013;-71
2021/07/11 04:17:24;;;;;;;;;;;;;;;28.54;48.89;99924.59;3520995;28;19928;-72
2021/07/11 04:19:04;;;;;;;;;;;;;;;28.57;48.82;99929.47;3520485;28;20386;-73
2021/07/11 04:20:45;;;;;;;;;;;;;;;28.63;48.59;99928.25;3520878;28;19924;-72
2021/07/11 04:22:26;;;;;;;;;;;;;;;28.68;48.40;99941.84;3515976;28;20446;-72
2021/07/11 04:24:06;;;;;;;;;;;;;;;28.74;48.04;99939.78;3510255;28;20390;-73
2021/07/11 04:25:47;;;;;;;;;;;;;;;28.78;48.19;99939.97;3510775;28;19923;-72
2021/07/11 04:27:27;;;;;;;;;;;;;;;28.82;48.17;99935.50;3506482;28;20385;-71
2021/07/11 04:29:08;;;;;;;;;;;;;;;28.86;48.07;99940.06;3493314;28;19953;-71
2021/07/11 04:30:48;;;;;;;;;;;;;;;28.91;47.66;99934.47;3497027;28;20021;-70
2021/07/11 04:32:30;;;;;;;;;;;;;;;28.92;47.65;99938.81;3501314;28;19930;-71
2021/07/11 04:34:19;;;;;;;;;;;;;;;28.92;47.55;99938.81;3509847;28;20386;-72
2021/07/11 04:36:00;;;;;;;;;;;;;;;28.95;47.24;99940.13;3510683;28;19928;-72
2021/07/11 04:37:40;;;;;;;;;;;;;;;28.97;47.29;99943.38;3510473;28;19931;-71
2021/07/11 04:39:21;;;;;;;;;;;;;;;29.01;47.49;99944.34;3510784;28;19924;-71
2021/07/11 04:41:02;;;;;;;;;;;;;;;29.08;47.33;99939.28;3510643;28;20023;-71
2021/07/11 04:42:44;;;;;;;;;;;;;;;29.14;47.30;99938.00;3503797;28;19932;-72
2021/07/11 04:44:26;;;;;;;;;;;;;;;29.20;47.17;99940.63;3495893;28;19974;-71
2021/07/11 04:46:06;;;;;;;;;;;;;;;29.26;47.30;99939.41;3496194;28;19973;-71
2021/07/11 04:47:47;;;;;;;;;;;;;;;29.32;46.83;99943.63;3496684;28;20349;-71
2021/07/11 04:49:27;;;;;;;;;;;;;;;29.36;47.00;99944.63;3496680;28;20432;-71
2021/07/11 04:51:08;;;;;;;;;;;;;;;29.40;46.68;99939.31;3496473;28;19986;-72
2021/07/11 04:52:48;;;;;;;;;;;;;;;29.43;46.89;99946.91;3500731;28;19931;-72
2021/07/11 04:54:29;;;;;;;;;;;;;;;29.45;46.51;99942.72;3510392;28;19920;-72
2021/07/11 04:56:09;;;;;;;;;;;;;;;29.48;46.14;99950.38;3510514;28;19981;-71
2021/07/11 04:57:50;;;;;;;;;;;;;;;29.49;45.70;99945.69;3510470;28;20413;-72
2021/07/11 04:59:30;;;;;;;;;;;;;;;29.48;45.46;99944.88;3510405;28;19932;-72
2021/07/11 05:01:11;;;;;;;;;;;;;;;29.51;45.42;99946.19;3510253;28;19924;-72
2021/07/11 05:02:51;;;;;;;;;;;;;;;29.55;45.79;99947.16;3505863;28;19928;-72
2021/07/11 05:04:32;;;;;;;;;;;;;;;29.60;45.39;99943.47;3496499;28;19924;-72
2021/07/11 05:06:12;;;;;;;;;;;;;;;29.65;45.39;99941.41;3495559;28;19924;-71
2021/07/11 05:07:53;;;;;;;;;;;;;;;29.70;45.09;99944.03;3496528;28;19931;-72
2021/07/11 05:09:34;;;;;;;;;;;;;;;29.77;45.26;99944.38;3498602;28;19924;-73
2021/07/11 05:11:14;;;;;;;;;;;;;;;29.83;45.34;99947.81;3499382;28;19931;-72
2021/07/11 05:12:55;;;;;;;;;;;;;;;29.88;45.14;99950.41;3503203;28;19977;-73
2021/07/11 05:14:35;;;;;;;;;;;;;;;29.96;44.77;99946.88;3512967;28;19924;-73
2021/07/11 05:16:16;;;;;;;;;;;;;;;30.02;44.73;99952.22;3513169;28;20302;-72
2021/07/11 05:17:56;;;;;;;;;;;;;;;30.07;44.36;99946.59;3513237;28;19924;-72
2021/07/11 05:19:37;;;;;;;;;;;;;;;30.10;44.25;99948.69;3525248;28;19931;-72
2021/07/11 05:21:17;;;;;;;;;;;;;;;30.14;44.20;99952.44;3527027;28;20821;-73
2021/07/11 05:22:58;;;;;;;;;;;;;;;30.21;44.09;99950.03;3522210;28;19928;-72
2021/07/11 05:24:41;;;;;;;;;;;;;;;30.25;43.85;99951.03;3513058;28;20019;-72
2021/07/11 05:26:22;;;;;;;;;;;;;;;30.29;43.78;99946.53;3513178;28;19927;-71
2021/07/11 05:28:03;;;;;;;;;;;;;;;30.35;43.58;99949.94;3497953;28;19956;-71
2021/07/11 05:29:43;;;;;;;;;;;;;;;30.40;43.65;99945.09;3510012;28;19946;-71
2021/07/11 05:31:24;;;;;;;;;;;;;;;30.42;43.60;99948.34;3512928;28;19924;-71
2021/07/11 05:33:05;;;;;;;;;;;;;;;30.43;42.63;99947.19;3517589;28;19930;-72
2021/07/11 05:34:45;;;;;;;;;;;;;;;30.47;42.73;99952.06;3512105;28;19950;-72
2021/07/11 05:36:28;;;;;;;;;;;;;;;30.52;42.58;99949.16;3524038;28;19923;-72
2021/07/11 05:38:09;;;;;;;;;;;;;;;30.58;42.52;99948.66;3526742;28;20431;-71
2021/07/11 05:39:50;;;;;;;;;;;;;;;30.65;42.28;99950.97;3526611;28;19924;-71
2021/07/11 05:41:30;;;;;;;;;;;;;;;30.72;42.31;99951.28;3526980;28;20077;-71
2021/07/11 05:43:11;;;;;;;;;;;;;;;30.79;42.45;99954.34;3524779;28;19928;-72
2021/07/11 05:44:54;;;;;;;;;;;;;;;30.85;42.37;99953.09;3511550;28;19970;-72
2021/07/11 05:46:35;;;;;;;;;;;;;;;30.91;42.07;99953.75;3512798;28;20324;-72
2021/07/11 05:48:15;;;;;;;;;;;;;;;30.98;42.00;99961.50;3512757;28;20725;-72
2021/07/11 05:49:56;;;;;;;;;;;;;;;31.02;41.70;99955.03;3512831;28;19931;-72
2021/07/11 05:51:36;;;;;;;;;;;;;;;31.05;41.57;99957.13;3525712;28;20022;-71
2021/07/11 05:53:17;;;;;;;;;;;;;;;31.08;41.49;99952.91;3517775;28;19930;-73
2021/07/11 05:54:57;;;;;;;;;;;;;;;31.14;41.39;99956.31;3526011;28;19923;-71
2021/07/11 05:56:38;;;;;;;;;;;;;;;31.20;41.24;99961.31;3526441;28;20390;-71
2021/07/11 05:58:18;;;;;;;;;;;;;;;31.26;41.13;99964.72;3526711;28;20006;-70
2021/07/11 05:59:59;;;;;;;;;;;;;;;31.33;41.13;99958.72;3526619;28;19924;-71
2021/07/11 06:01:39;;;;;;;;;;;;;;;31.38;40.99;99959.38;3526405;28;19946;-71
2021/07/11 06:03:20;;;;;;;;;;;;;;;31.43;41.11;99963.91;3523744;28;19938;-71
2021/07/11 06:05:01;;;;;;;;;;;;;;;31.45;41.31;99956.94;3512470;28;20276;-72
2021/07/11 06:06:41;;;;;;;;;;;;;;;31.44;41.06;99960.00;3512347;28;20065;-71
2021/07/11 06:08:22;;;;;;;;;;;;;;;31.41;40.60;99960.66;3498181;28;19931;-71
2021/07/11 06:10:06;;;;;;;;;;;;;;;31.40;39.84;99959.06;3509895;28;19927;-71
2021/07/11 06:11:46;;;;;;;;;;;;;;;31.41;39.80;99955.16;3512840;28;20057;-71
2021/07/11 06:13:27;;;;;;;;;;;;;;;31.47;39.84;99959.34;3517476;28;19928;-72
2021/07/11 06:15:08;;;;;;;;;;;;;;;31.55;39.80;99960.47;3526232;28;19977;-72
2021/07/11 06:16:49;;;;;;;;;;;;;;;31.63;39.69;99967.91;3526548;28;19927;-72
2021/07/11 06:18:30;;;;;;;;;;;;;;;31.71;39.66;99961.56;3526354;28;19923;-71
2021/07/11 06:20:10;;;;;;;;;;;;;;;31.80;39.74;99961.53;3525420;28;19959;-72
2021/07/11 06:21:51;;;;;;;;;;;;;;;31.88;39.48;99964.25;3511351;28;20023;-71
2021/07/11 06:23:31;;;;;;;;;;;;;;;31.96;39.60;99954.38;3516877;28;20310;-72
2021/07/11 06:25:12;;;;;;;;;;;;;;;32.04;39.15;99961.78;3512040;28;19924;-72
2021/07/11 06:26:52;;;;;;;;;;;;;;;32.11;39.39;99959.28;3512407;28;19931;-72
2021/07/11 06:28:33;;;;;;;;;;;;;;;32.18;38.80;99955.22;3512265;28;19924;-72
2021/07/11 06:30:14;;;;;;;;;;;;;;;32.24;38.97;99959.38;3512272;28;20374;-70
2021/07/11 06:31:55;;;;;;;;;;;;;;;32.29;38.44;99965.50;3512079;28;19924;-73
2021/07/11 06:33:36;;;;;;;;;;;;;;;32.35;38.32;99958.69;3496934;28;20341;-72
2021/07/11 06:35:17;;;;;;;;;;;;;;;32.46;38.01;99952.78;3509063;28;20444;-72
2021/07/11 06:36:58;;;;;;;;;;;;;;;32.62;38.22;99953.00;3512300;28;19931;-72
2021/07/11 06:38:38;;;;;;;;;;;;;;;32.74;37.93;99951.13;3511912;28;19924;-72
2021/07/11 06:40:20;;;;;;;;;;;;;;;32.88;37.56;99945.31;3511996;28;19924;-72
2021/07/11 06:42:00;;;;;;;;;;;;;;;33.02;38.02;99956.13;3512076;28;20280;-72
2021/07/11 06:43:41;;;;;;;;;;;;;;;33.14;37.57;99953.38;3512221;28;19969;-73
2021/07/11 06:45:21;;;;;;;;;;;;;;;33.27;37.15;99957.00;3512249;28;19959;-72
2021/07/11 06:47:03;;;;;;;;;;;;;;;33.38;37.18;99944.38;3511834;28;19924;-72
2021/07/11 06:48:43;;;;;;;;;;;;;;;33.51;36.96;99953.50;3511920;28;20291;-72
2021/07/11 06:50:24;;;;;;;;;;;;;;;33.61;37.24;99938.44;3496956;28;19971;-73
2021/07/11 06:52:05;;;;;;;;;;;;;;;33.72;37.01;99947.94;3508740;28;19971;-74
2021/07/11 06:53:46;;;;;;;;;;;;;;;33.80;36.96;99944.25;3511876;28;20321;-72
2021/07/11 06:55:27;;;;;;;;;;;;;;;33.87;36.75;99947.25;3512005;28;20022;-72
2021/07/11 06:57:07;;;;;;;;;;;;;;;33.91;36.56;99954.84;3511600;28;20016;-72
2021/07/11 06:58:48;;;;;;;;;;;;;;;33.94;36.71;99951.38;3511651;28;20386;-72
2021/07/11 07:00:28;;;;;;;;;;;;;;;33.89;37.16;99950.47;3511555;28;19978;-72
2021/07/11 07:02:09;;;;;;;;;;;;;;;33.79;36.60;99950.09;3496695;28;19924;-72
2021/07/11 07:03:49;;;;;;;;;;;;;;;33.70;37.00;99950.22;3509383;28;19927;-73
2021/07/11 07:05:30;;;;;;;;;;;;;;;33.67;37.09;99954.47;3511718;28;19977;-72
2021/07/11 07:07:10;;;;;;;;;;;;;;;33.64;37.44;99954.38;3511577;28;20116;-72
2021/07/11 07:08:51;;;;;;;;;;;;;;;33.61;37.37;99955.03;3511673;28;19931;-72
2021/07/11 07:10:31;;;;;;;;;;;;;;;33.57;37.03;99954.13;3511597;28;19935;-72
2021/07/11 07:12:12;;;;;;;;;;;;;;;33.51;37.40;99949.91;3512283;28;19930;-72
2021/07/11 07:13:52;;;;;;;;;;;;;;;33.45;37.32;99947.38;3511408;28;19955;-71
2021/07/11 07:15:33;;;;;;;;;;;;;;;33.49;36.90;99957.78;3511305;28;19977;-72
2021/07/11 07:17:13;;;;;;;;;;;;;;;33.58;37.04;99958.50;3511397;28;19931;-73
2021/07/11 07:18:54;;;;;;;;;;;;;;;33.70;37.25;99957.72;3511545;28;20390;-73
2021/07/11 07:20:34;;;;;;;;;;;;;;;33.85;36.77;99948.75;3511433;28;20309;-73
2021/07/11 07:22:15;;;;;;;;;;;;;;;34.01;36.83;99957.16;3512407;28;19992;-72
2021/07/11 07:23:55;;;;;;;;;;;;;;;34.16;36.55;99948.19;3511505;28;19969;-72
2021/07/11 07:25:36;;;;;;;;;;;;;;;34.31;36.13;99944.72;3511478;28;19928;-71
2021/07/11 07:27:16;;;;;;;;;;;;;;;34.44;36.02;99950.22;3511549;28;19931;-72
2021/07/11 07:28:57;;;;;;;;;;;;;;;34.56;35.60;99949.41;3511482;28;19936;-72
2021/07/11 07:30:38;;;;;;;;;;;;;;;34.68;35.89;99955.75;3511018;28;20322;-73
2021/07/11 07:32:19;;;;;;;;;;;;;;;34.85;35.77;99951.06;3510280;28;20298;-72
2021/07/11 07:33:59;;;;;;;;;;;;;;;34.98;35.53;99955.38;3522309;28;19923;-72
2021/07/11 07:35:40;;;;;;;;;;;;;;;35.11;34.85;99953.41;3525120;28;19972;-72
2021/07/11 07:37:20;;;;;;;;;;;;;;;35.24;34.74;99954.16;3510580;28;19924;-72
2021/07/11 07:39:01;;;;;;;;;;;;;;;35.31;34.62;99951.56;3522552;28;20362;-72
2021/07/11 07:40:41;;;;;;;;;;;;;;;35.40;34.89;99955.00;3524532;28;20014;-73
2021/07/11 07:42:22;;;;;;;;;;;;;;;35.52;34.53;99956.88;3511335;28;19931;-73
2021/07/11 07:44:03;;;;;;;;;;;;;;;35.65;34.25;99961.22;3496138;28;19916;-73
2021/07/11 07:45:44;;;;;;;;;;;;;;;35.75;34.50;99957.09;3508477;28;19931;-73
2021/07/11 07:47:25;;;;;;;;;;;;;;;35.87;33.89;99962.56;3511302;28;19916;-72
2021/07/11 07:49:05;;;;;;;;;;;;;;;35.95;33.81;99955.22;3511784;28;20279;-72
2021/07/11 07:50:46;;;;;;;;;;;;;;;35.99;34.36;99959.69;3511387;28;20012;-72
2021/07/11 07:52:26;;;;;;;;;;;;;;;36.06;33.95;99958.25;3511237;28;20848;-71
2021/07/11 07:54:07;;;;;;;;;;;;;;;36.15;34.02;99961.69;3511271;28;19924;-72
2021/07/11 07:55:48;;;;;;;;;;;;;;;36.24;33.59;99957.53;3511347;28;19916;-72
2021/07/11 07:57:28;;;;;;;;;;;;;;;36.36;33.43;99951.06;3511170;28;20022;-72
2021/07/11 07:59:08;;;;;;;;;;;;;;;36.47;33.88;99951.28;3511193;28;19930;-71
2021/07/11 08:00:50;;;;;;;;;;;;;;;36.57;33.29;99955.50;3511724;28;19924;-71
2021/07/11 08:02:31;;;;;;;;;;;;;;;36.67;33.01;99954.94;3511178;28;19931;-72
2021/07/11 08:04:12;;;;;;;;;;;;;;;36.80;32.70;99956.41;3516703;28;19924;-72
2021/07/11 08:05:52;;;;;;;;;;;;;;;36.91;32.34;99956.59;3523344;28;20524;-72
2021/07/11 08:07:33;;;;;;;;;;;;;;;37.02;32.75;99959.59;3525351;28;19931;-71
2021/07/11 08:09:14;;;;;;;;;;;;;;;37.12;32.07;99942.34;3496751;28;19979;-71
2021/07/11 08:10:55;;;;;;;;;;;;;;;37.24;32.46;99944.97;3508485;28;19992;-72
2021/07/11 08:12:35;;;;;;;;;;;;;;;37.39;32.16;99950.81;3511179;28;20021;-72
2021/07/11 08:14:16;;;;;;;;;;;;;;;37.52;32.35;99943.91;3511108;28;19924;-72
2021/07/11 08:15:56;;;;;;;;;;;;;;;37.65;32.16;99939.78;3499444;28;19947;-72
2021/07/11 08:17:37;;;;;;;;;;;;;;;37.78;32.18;99942.38;3521888;28;19925;-69
2021/07/11 08:19:17;;;;;;;;;;;;;;;37.89;31.71;99943.31;3524970;28;19923;-72
2021/07/11 08:20:58;;;;;;;;;;;;;;;37.97;31.62;99948.66;3524847;28;20018;-75
2021/07/11 08:22:38;;;;;;;;;;;;;;;38.00;31.65;99947.09;3524782;28;20027;-73
2021/07/11 08:24:22;;;;;;;;;;;;;;;37.97;30.99;99947.84;3525096;28;19924;-72
2021/07/11 08:26:02;;;;;;;;;;;;;;;38.01;30.60;99937.59;3519778;28;19924;-74
2021/07/11 08:27:43;;;;;;;;;;;;;;;38.09;31.04;99944.06;3510986;28;20019;-72
2021/07/11 08:29:24;;;;;;;;;;;;;;;38.16;30.80;99939.41;3511640;28;20341;-72
2021/07/11 08:31:04;;;;;;;;;;;;;;;38.26;30.86;99942.72;3510809;28;19924;-72
2021/07/11 08:32:45;;;;;;;;;;;;;;;38.32;30.77;99942.03;3510597;28;20292;-72
2021/07/11 08:34:25;;;;;;;;;;;;;;;38.27;30.85;99944.34;3510837;28;19977;-72
2021/07/11 08:36:06;;;;;;;;;;;;;;;38.15;30.52;99943.34;3510733;28;19924;-72
2021/07/11 08:37:47;;;;;;;;;;;;;;;38.13;30.94;99945.75;3510654;28;19924;-72
2021/07/11 08:39:27;;;;;;;;;;;;;;;38.21;30.77;99941.06;3521919;28;20010;-72
2021/07/11 08:41:08;;;;;;;;;;;;;;;38.33;30.75;99937.25;3524522;28;19930;-72
2021/07/11 08:42:50;;;;;;;;;;;;;;;38.40;30.62;99931.78;3524650;28;19924;-71
2021/07/11 08:44:30;;;;;;;;;;;;;;;38.37;30.91;99927.78;3524362;28;19977;-71
2021/07/11 08:46:11;;;;;;;;;;;;;;;38.33;30.34;99931.69;3525102;28;19923;-71
2021/07/11 08:47:51;;;;;;;;;;;;;;;38.35;30.23;99923.75;3524562;28;20057;-71
2021/07/11 08:49:32;;;;;;;;;;;;;;;38.42;30.11;99926.66;3515391;28;19923;-71